Time;durP1;ratioP1;P1;durP2;ratioP2;P2;SDS_P1;SDS_P2;PMS_P1;PMS_P2;Temp;Humidity;BMP_temperature;BMP_pressure;BME280_temperature;BME280_humidity;BME280_pressure;Samples;Min_cycle;Max_cycle;Signal;HPM_P1;HPM_P2
2022/11/15 00:01:26;;;;;;;13.05;11.32;;;;;;;;;;5075203;28;20031;-72
2022/11/15 00:03:52;;;;;;;14.05;12.52;;;;;;;;;;5075605;28;20122;-74
2022/11/15 00:06:17;;;;;;;13.25;11.85;;;;;;;;;;5082570;28;20024;-71
2022/11/15 00:08:43;;;;;;;16.67;12.75;;;;;;;;;;5079184;28;20150;-74
2022/11/15 00:11:10;;;;;;;13.05;11.50;;;;;;;;;;5063198;28;20028;-73
2022/11/15 00:13:35;;;;;;;21.35;17.58;;;;;;;;;;5079833;28;20519;-71
2022/11/15 00:16:01;;;;;;;20.00;17.40;;;;;;;;;;5080929;28;20032;-71
2022/11/15 00:18:26;;;;;;;18.25;15.48;;;;;;;;;;5069935;28;20499;-75
2022/11/15 00:20:52;;;;;;;20.48;18.20;;;;;;;;;;5079585;28;20052;-74
2022/11/15 00:23:17;;;;;;;16.10;13.43;;;;;;;;;;5071715;28;20139;-72
2022/11/15 00:25:43;;;;;;;16.20;12.20;;;;;;;;;;5074669;28;20039;-76
2022/11/15 00:28:08;;;;;;;13.50;12.05;;;;;;;;;;5073245;28;20074;-73
2022/11/15 00:30:34;;;;;;;13.18;11.77;;;;;;;;;;5079911;28;20028;-72
2022/11/15 00:33:05;;;;;;;11.30;9.82;;;;;;;;;;5081240;28;20028;-71
2022/11/15 00:35:33;;;;;;;10.98;9.88;;;;;;;;;;5077305;28;20040;-72
2022/11/15 00:37:58;;;;;;;11.82;10.60;;;;;;;;;;5073255;28;20123;-74
2022/11/15 00:40:24;;;;;;;11.10;9.68;;;;;;;;;;5068660;28;20110;-74
2022/11/15 00:42:49;;;;;;;10.95;9.85;;;;;;;;;;5080320;28;20538;-73
2022/11/15 00:45:14;;;;;;;11.95;10.05;;;;;;;;;;5079932;28;20164;-72
2022/11/15 00:47:40;;;;;;;11.75;10.55;;;;;;;;;;5080269;28;20024;-72
2022/11/15 00:50:05;;;;;;;11.02;9.85;;;;;;;;;;5079300;28;20024;-72
2022/11/15 00:52:30;;;;;;;16.10;13.13;;;;;;;;;;5070054;28;20028;-72
2022/11/15 00:54:56;;;;;;;13.80;11.90;;;;;;;;;;5081328;28;20036;-72
2022/11/15 00:57:21;;;;;;;13.68;11.68;;;;;;;;;;5070060;28;20031;-71
2022/11/15 00:59:46;;;;;;;13.88;11.23;;;;;;;;;;5078958;28;20028;-72
2022/11/15 01:02:12;;;;;;;12.57;10.25;;;;;;;;;;5078696;28;20111;-75
2022/11/15 01:04:37;;;;;;;11.88;10.07;;;;;;;;;;5071173;28;20070;-73
2022/11/15 01:07:02;;;;;;;10.27;9.20;;;;;;;;;;5076243;28;20443;-72
2022/11/15 01:09:28;;;;;;;9.85;8.60;;;;;;;;;;5074294;28;20339;-74
2022/11/15 01:11:53;;;;;;;11.10;9.40;;;;;;;;;;5079502;28;20033;-73
2022/11/15 01:14:18;;;;;;;11.60;10.43;;;;;;;;;;5078524;28;20071;-73
2022/11/15 01:16:44;;;;;;;13.32;11.05;;;;;;;;;;5077022;28;20020;-72
2022/11/15 01:19:09;;;;;;;15.00;12.10;;;;;;;;;;5081429;28;20044;-72
2022/11/15 01:21:34;;;;;;;14.18;12.20;;;;;;;;;;5075430;28;20020;-72
2022/11/15 01:24:00;;;;;;;13.02;10.55;;;;;;;;;;5067582;28;20028;-73
2022/11/15 01:26:25;;;;;;;11.52;9.52;;;;;;;;;;5077058;28;20050;-71
2022/11/15 01:28:51;;;;;;;10.57;9.15;;;;;;;;;;5079579;28;20423;-76
2022/11/15 01:31:18;;;;;;;10.35;9.35;;;;;;;;;;5079517;28;20051;-72
2022/11/15 01:33:43;;;;;;;9.45;8.45;;;;;;;;;;5079960;28;20036;-72
2022/11/15 01:36:16;;;;;;;11.32;10.15;;;;;;;;;;5078512;28;20477;-72
2022/11/15 01:38:41;;;;;;;13.30;11.13;;;;;;;;;;5078356;28;20059;-71
2022/11/15 01:41:13;;;;;;;11.82;10.52;;;;;;;;;;5079190;28;20063;-76
2022/11/15 01:43:39;;;;;;;10.55;9.55;;;;;;;;;;5070931;28;20032;-73
2022/11/15 01:46:23;;;;;;;10.35;8.82;;;;;;;;;;5080368;28;20093;-73
2022/11/15 01:48:51;;;;;;;10.30;8.98;;;;;;;;;;5079698;28;20046;-70
2022/11/15 01:51:17;;;;;;;11.85;10.68;;;;;;;;;;5081186;28;20023;-71
2022/11/15 01:53:45;;;;;;;10.90;9.80;;;;;;;;;;5080504;28;20042;-74
2022/11/15 01:56:13;;;;;;;11.60;10.27;;;;;;;;;;5080700;28;20020;-71
2022/11/15 01:58:40;;;;;;;12.27;10.98;;;;;;;;;;5084133;28;20055;-72
2022/11/15 02:01:05;;;;;;;12.85;11.55;;;;;;;;;;5083600;28;20028;-72
2022/11/15 02:03:35;;;;;;;14.65;12.95;;;;;;;;;;5084208;28;20028;-71
2022/11/15 02:06:01;;;;;;;12.55;10.98;;;;;;;;;;5082349;28;20031;-72
2022/11/15 02:08:27;;;;;;;12.60;10.88;;;;;;;;;;5083664;28;20056;-71
2022/11/15 02:10:52;;;;;;;14.48;11.85;;;;;;;;;;5083361;28;20063;-71
2022/11/15 02:13:17;;;;;;;16.42;13.82;;;;;;;;;;5083503;28;20036;-71
2022/11/15 02:16:06;;;;;;;19.08;15.27;;;;;;;;;;5072286;28;20024;-73
2022/11/15 02:18:37;;;;;;;15.85;12.63;;;;;;;;;;5074504;28;20353;-72
2022/11/15 02:21:20;;;;;;;14.93;12.05;;;;;;;;;;5083519;28;20036;-72
2022/11/15 02:23:49;;;;;;;15.02;12.23;;;;;;;;;;5083716;28;20032;-75
2022/11/15 02:26:18;;;;;;;14.38;11.85;;;;;;;;;;5085126;28;20043;-72
2022/11/15 02:29:03;;;;;;;12.73;10.45;;;;;;;;;;5083672;28;20031;-73
2022/11/15 02:31:28;;;;;;;14.35;11.57;;;;;;;;;;5081540;28;20121;-74
2022/11/15 02:33:59;;;;;;;14.30;12.80;;;;;;;;;;5081929;28;20531;-71
2022/11/15 02:36:43;;;;;;;14.48;11.15;;;;;;;;;;5084070;28;20088;-75
2022/11/15 02:39:15;;;;;;;10.57;9.48;;;;;;;;;;5079275;28;20077;-71
2022/11/15 02:42:00;;;;;;;9.07;8.18;;;;;;;;;;5082315;28;20032;-72
2022/11/15 02:44:32;;;;;;;11.73;10.52;;;;;;;;;;5081295;28;20067;-70
2022/11/15 02:47:15;;;;;;;11.88;10.68;;;;;;;;;;5082331;28;20058;-71
2022/11/15 02:49:45;;;;;;;10.45;9.45;;;;;;;;;;5083465;28;20460;-70
2022/11/15 02:52:14;;;;;;;9.55;8.65;;;;;;;;;;5072083;28;20055;-72
2022/11/15 02:54:39;;;;;;;9.57;8.67;;;;;;;;;;5081583;28;20056;-72
2022/11/15 02:57:10;;;;;;;9.40;8.48;;;;;;;;;;5080854;28;20058;-72
2022/11/15 02:59:54;;;;;;;10.05;9.05;;;;;;;;;;5080527;28;20020;-72
2022/11/15 03:02:40;;;;;;;8.32;7.53;;;;;;;;;;5083170;28;20464;-71
2022/11/15 03:05:09;;;;;;;9.25;8.40;;;;;;;;;;5083915;28;20436;-74
2022/11/15 03:07:56;;;;;;;9.10;8.23;;;;;;;;;;5081899;28;20066;-74
2022/11/15 03:10:42;;;;;;;10.18;8.43;;;;;;;;;;5083060;28;20031;-71
2022/11/15 03:13:19;;;;;;;9.90;8.90;;;;;;;;;;5083103;28;20104;-72
2022/11/15 03:15:50;;;;;;;12.82;10.85;;;;;;;;;;5080575;28;20032;-73
2022/11/15 03:18:27;;;;;;;12.25;11.02;;;;;;;;;;5075067;28;20428;-73
2022/11/15 03:20:53;;;;;;;12.27;11.07;;;;;;;;;;5077985;28;20065;-73
2022/11/15 03:23:18;;;;;;;13.55;12.15;;;;;;;;;;5083071;28;20028;-73
2022/11/15 03:25:46;;;;;;;14.20;12.68;;;;;;;;;;5082555;28;20027;-71
2022/11/15 03:28:22;;;;;;;15.30;13.55;;;;;;;;;;5081460;28;20084;-71
2022/11/15 03:30:49;;;;;;;14.18;12.25;;;;;;;;;;5080924;28;20024;-73
2022/11/15 03:33:14;;;;;;;13.75;12.35;;;;;;;;;;5079099;28;20020;-71
2022/11/15 03:35:42;;;;;;;12.85;11.30;;;;;;;;;;5081691;28;20359;-75
2022/11/15 03:38:21;;;;;;;14.30;12.75;;;;;;;;;;5069946;28;20032;-71
2022/11/15 03:40:59;;;;;;;14.00;12.32;;;;;;;;;;5081928;28;20024;-72
2022/11/15 03:43:36;;;;;;;12.82;11.52;;;;;;;;;;5081452;28;21236;-72
2022/11/15 03:46:11;;;;;;;12.82;11.43;;;;;;;;;;5083212;28;20054;-71
2022/11/15 03:48:41;;;;;;;13.85;12.45;;;;;;;;;;5079357;28;20439;-73
2022/11/15 03:51:07;;;;;;;13.07;11.77;;;;;;;;;;5080070;28;20024;-72
2022/11/15 03:53:32;;;;;;;14.02;12.52;;;;;;;;;;5080866;28;20042;-73
2022/11/15 03:55:57;;;;;;;13.52;11.55;;;;;;;;;;5081252;28;20356;-71
2022/11/15 03:58:23;;;;;;;14.73;13.18;;;;;;;;;;5080426;28;20077;-73
2022/11/15 04:00:48;;;;;;;16.23;13.23;;;;;;;;;;5080639;28;20062;-71
2022/11/15 04:03:13;;;;;;;14.25;12.63;;;;;;;;;;5081994;28;20024;-74
2022/11/15 04:05:39;;;;;;;14.80;11.38;;;;;;;;;;5081081;28;20024;-72
2022/11/15 04:08:04;;;;;;;13.00;11.70;;;;;;;;;;5073226;28;20039;-71
2022/11/15 04:10:29;;;;;;;13.27;11.15;;;;;;;;;;5078436;28;20515;-72
2022/11/15 04:12:55;;;;;;;12.07;10.88;;;;;;;;;;5079117;28;20724;-72
2022/11/15 04:15:21;;;;;;;15.80;13.23;;;;;;;;;;5080230;28;20427;-72
2022/11/15 04:17:48;;;;;;;18.45;15.77;;;;;;;;;;5081153;28;20051;-74
2022/11/15 04:26:07;;;;;;;15.52;12.88;;;;;;;;;;5081347;28;20092;-73
2022/11/15 04:28:32;;;;;;;18.80;15.80;;;;;;;;;;5082376;28;20030;-72
2022/11/15 04:30:58;;;;;;;20.42;16.98;;;;;;;;;;5079766;28;20024;-73
2022/11/15 04:33:23;;;;;;;19.08;17.10;;;;;;;;;;5077277;28;20100;-72
2022/11/15 04:38:33;;;;;;;19.38;16.60;;;;;;;;;;5082415;28;20043;-73
2022/11/15 04:40:58;;;;;;;20.20;18.13;;;;;;;;;;5081806;28;20019;-71
2022/11/15 04:43:23;;;;;;;19.05;17.05;;;;;;;;;;5082389;28;20031;-73
2022/11/15 04:45:49;;;;;;;17.67;15.77;;;;;;;;;;5081405;28;20034;-72
2022/11/15 04:48:14;;;;;;;17.08;15.38;;;;;;;;;;5078754;28;20993;-72
2022/11/15 04:50:39;;;;;;;15.77;14.07;;;;;;;;;;5079475;28;20435;-72
2022/11/15 04:53:05;;;;;;;14.40;12.55;;;;;;;;;;5075785;28;20347;-76
2022/11/15 04:55:31;;;;;;;13.32;11.50;;;;;;;;;;5063770;28;20379;-74
2022/11/15 04:58:00;;;;;;;16.98;12.48;;;;;;;;;;5064698;28;20032;-72
2022/11/15 05:00:26;;;;;;;16.58;13.98;;;;;;;;;;5064268;28;20028;-72
2022/11/15 05:05:37;;;;;;;55.10;42.22;;;;;;;;;;5065445;28;20524;-72
2022/11/15 05:08:02;;;;;;;87.40;67.15;;;;;;;;;;5064736;28;20156;-72
2022/11/15 05:10:28;;;;;;;80.55;65.22;;;;;;;;;;5076320;28;20060;-75
2022/11/15 05:12:53;;;;;;;43.28;38.53;;;;;;;;;;5074952;28;20023;-72
2022/11/15 05:15:18;;;;;;;30.05;26.90;;;;;;;;;;5075249;28;20028;-71
2022/11/15 05:17:44;;;;;;;43.45;38.88;;;;;;;;;;5081180;28;20040;-74
2022/11/15 05:20:09;;;;;;;55.03;49.10;;;;;;;;;;5079762;28;20854;-72
2022/11/15 05:22:35;;;;;;;44.97;40.10;;;;;;;;;;5078496;28;20028;-70
2022/11/15 05:25:00;;;;;;;44.75;39.90;;;;;;;;;;5080727;28;20059;-71
2022/11/15 05:27:25;;;;;;;49.13;43.70;;;;;;;;;;5078946;28;20028;-70
2022/11/15 05:29:51;;;;;;;40.90;34.83;;;;;;;;;;5072273;28;20043;-71
2022/11/15 05:32:16;;;;;;;23.15;19.92;;;;;;;;;;5070957;28;20031;-71
2022/11/15 05:34:42;;;;;;;42.67;31.70;;;;;;;;;;5071871;28;20044;-74
2022/11/15 05:37:07;;;;;;;32.13;25.15;;;;;;;;;;5071910;28;20351;-72
2022/11/15 05:39:32;;;;;;;30.98;25.83;;;;;;;;;;5072267;28;20027;-73
2022/11/15 05:42:16;;;;;;;36.35;29.73;;;;;;;;;;5072039;28;20039;-75
2022/11/15 05:44:44;;;;;;;28.80;21.60;;;;;;;;;;5071331;28;20039;-72
2022/11/15 05:47:11;;;;;;;23.23;19.35;;;;;;;;;;5074417;28;20020;-71
2022/11/15 05:49:38;;;;;;;38.00;34.17;;;;;;;;;;5082755;28;20024;-74
2022/11/15 05:52:05;;;;;;;39.67;35.00;;;;;;;;;;5075693;28;20135;-71
2022/11/15 05:54:31;;;;;;;23.60;20.90;;;;;;;;;;5084279;28;20493;-72
2022/11/15 05:56:56;;;;;;;25.20;21.70;;;;;;;;;;5084594;28;20036;-72
2022/11/15 05:59:21;;;;;;;35.90;30.85;;;;;;;;;;5084744;28;20446;-72
2022/11/15 06:01:47;;;;;;;29.40;26.20;;;;;;;;;;5084430;28;20016;-74
2022/11/15 06:04:12;;;;;;;27.75;23.77;;;;;;;;;;5067274;28;20358;-71
2022/11/15 06:06:37;;;;;;;39.05;31.98;;;;;;;;;;5083210;28;20112;-72
2022/11/15 06:09:03;;;;;;;38.00;33.80;;;;;;;;;;5075393;28;20038;-73
2022/11/15 06:11:28;;;;;;;35.25;31.00;;;;;;;;;;5070821;28;20405;-71
2022/11/15 06:13:54;;;;;;;39.88;34.78;;;;;;;;;;5070177;28;20872;-71
2022/11/15 06:16:19;;;;;;;42.83;37.28;;;;;;;;;;5072180;28;20012;-72
2022/11/15 06:18:45;;;;;;;81.28;65.47;;;;;;;;;;5070752;28;20360;-72
2022/11/15 06:21:10;;;;;;;47.55;36.03;;;;;;;;;;5082104;28;20032;-72
2022/11/15 06:23:35;;;;;;;57.17;45.65;;;;;;;;;;5081936;28;20032;-76
2022/11/15 06:26:01;;;;;;;36.25;30.40;;;;;;;;;;5077044;28;20098;-73
2022/11/15 06:28:30;;;;;;;39.45;32.50;;;;;;;;;;5077582;28;20028;-72
2022/11/15 06:30:56;;;;;;;44.55;38.05;;;;;;;;;;5083315;28;20054;-72
2022/11/15 06:33:21;;;;;;;40.95;34.55;;;;;;;;;;5082930;28;21069;-71
2022/11/15 06:35:47;;;;;;;63.60;47.25;;;;;;;;;;5084336;28;20040;-72
2022/11/15 06:38:12;;;;;;;73.95;57.65;;;;;;;;;;5081107;28;20020;-71
2022/11/15 06:40:38;;;;;;;35.28;27.27;;;;;;;;;;5081028;28;20051;-71
2022/11/15 06:43:04;;;;;;;35.92;26.67;;;;;;;;;;5075442;28;20052;-71
2022/11/15 06:45:30;;;;;;;27.05;21.30;;;;;;;;;;5081353;28;20036;-74
2022/11/15 06:47:55;;;;;;;20.23;17.45;;;;;;;;;;5081349;28;20313;-71
2022/11/15 06:50:21;;;;;;;18.55;16.40;;;;;;;;;;5072683;28;20097;-73
2022/11/15 06:52:46;;;;;;;52.95;32.08;;;;;;;;;;5079957;28;20346;-71
2022/11/15 06:55:11;;;;;;;237.48;107.28;;;;;;;;;;5083737;28;20044;-72
2022/11/15 06:57:37;;;;;;;43.35;27.48;;;;;;;;;;5083238;28;20092;-72
2022/11/15 07:00:05;;;;;;;25.20;20.23;;;;;;;;;;5082268;28;20028;-77
2022/11/15 07:02:31;;;;;;;29.80;25.55;;;;;;;;;;5080527;28;20035;-74
2022/11/15 07:04:56;;;;;;;25.92;22.48;;;;;;;;;;5082812;28;20435;-72
2022/11/15 07:07:21;;;;;;;38.25;28.55;;;;;;;;;;5080467;28;20115;-73
2022/11/15 07:09:47;;;;;;;45.28;32.80;;;;;;;;;;5080513;28;20118;-72
2022/11/15 07:12:12;;;;;;;28.77;24.90;;;;;;;;;;5080900;28;20312;-72
2022/11/15 07:14:38;;;;;;;36.05;27.90;;;;;;;;;;5081509;28;20038;-73
2022/11/15 07:17:04;;;;;;;29.38;24.55;;;;;;;;;;5083686;28;20035;-71
2022/11/15 07:19:30;;;;;;;33.25;27.35;;;;;;;;;;5081067;28;20060;-73
2022/11/15 07:21:55;;;;;;;29.25;25.20;;;;;;;;;;5082214;28;20043;-72
2022/11/15 07:24:20;;;;;;;24.77;21.38;;;;;;;;;;5065783;28;20038;-74
2022/11/15 07:26:46;;;;;;;27.77;23.70;;;;;;;;;;5081730;28;20662;-72
2022/11/15 07:29:11;;;;;;;29.70;24.15;;;;;;;;;;5082146;28;20451;-71
2022/11/15 07:31:37;;;;;;;33.45;28.83;;;;;;;;;;5083112;28;20359;-71
2022/11/15 07:34:02;;;;;;;27.58;23.55;;;;;;;;;;5082375;28;20660;-71
2022/11/15 07:36:27;;;;;;;27.55;24.17;;;;;;;;;;5082827;28;20030;-75
2022/11/15 07:38:53;;;;;;;25.80;20.05;;;;;;;;;;5080068;28;20028;-72
2022/11/15 07:41:18;;;;;;;16.08;13.80;;;;;;;;;;5083045;28;20074;-74
2022/11/15 07:43:43;;;;;;;13.27;11.18;;;;;;;;;;5082522;28;20035;-75
2022/11/15 07:46:09;;;;;;;14.45;11.85;;;;;;;;;;5082721;28;20024;-74
2022/11/15 07:48:35;;;;;;;19.88;17.77;;;;;;;;;;5081018;28;20024;-71
2022/11/15 07:51:00;;;;;;;31.60;26.52;;;;;;;;;;5079403;28;20036;-72
2022/11/15 07:53:25;;;;;;;19.92;17.52;;;;;;;;;;5081935;28;20344;-72
2022/11/15 07:55:53;;;;;;;16.55;13.85;;;;;;;;;;5078939;28;20039;-72
2022/11/15 07:58:18;;;;;;;13.07;11.73;;;;;;;;;;5082260;28;20023;-72
2022/11/15 08:00:43;;;;;;;19.20;15.98;;;;;;;;;;5083438;28;20458;-75
2022/11/15 08:03:10;;;;;;;13.20;11.60;;;;;;;;;;5081954;28;20032;-73
2022/11/15 08:05:36;;;;;;;19.20;16.92;;;;;;;;;;5081507;28;20023;-72
2022/11/15 08:08:02;;;;;;;16.77;14.98;;;;;;;;;;5082293;28;20442;-71
2022/11/15 08:10:27;;;;;;;16.52;13.57;;;;;;;;;;5079153;28;20031;-72
2022/11/15 08:12:57;;;;;;;13.65;12.02;;;;;;;;;;5083050;28;20078;-73
2022/11/15 08:15:22;;;;;;;14.75;12.73;;;;;;;;;;5082496;28;20020;-71
2022/11/15 08:17:52;;;;;;;20.25;15.02;;;;;;;;;;5082126;28;20044;-75
2022/11/15 08:20:19;;;;;;;26.55;19.52;;;;;;;;;;5082542;28;20016;-71
2022/11/15 08:22:44;;;;;;;21.40;16.38;;;;;;;;;;5083473;28;20057;-72
2022/11/15 08:25:09;;;;;;;19.50;16.27;;;;;;;;;;5081145;28;20046;-75
2022/11/15 08:27:35;;;;;;;15.48;13.88;;;;;;;;;;5080408;28;20493;-72
2022/11/15 08:30:01;;;;;;;12.52;11.15;;;;;;;;;;5081766;28;20020;-72
2022/11/15 08:32:26;;;;;;;23.92;19.63;;;;;;;;;;5080549;28;20093;-72
2022/11/15 08:34:51;;;;;;;21.00;18.25;;;;;;;;;;5080307;28;20040;-71
2022/11/15 08:37:17;;;;;;;22.08;19.27;;;;;;;;;;5082856;28;20045;-72
2022/11/15 08:39:42;;;;;;;28.52;25.40;;;;;;;;;;5080918;28;20024;-72
2022/11/15 08:42:07;;;;;;;20.27;18.15;;;;;;;;;;5082234;28;20078;-72
2022/11/15 08:44:33;;;;;;;24.85;21.67;;;;;;;;;;5081904;28;20035;-74
2022/11/15 08:46:58;;;;;;;19.38;17.35;;;;;;;;;;5080538;28;20439;-73
2022/11/15 08:49:23;;;;;;;12.85;11.55;;;;;;;;;;5082559;28;20106;-72
2022/11/15 08:51:48;;;;;;;12.85;11.55;;;;;;;;;;5082543;28;20070;-74
2022/11/15 08:54:14;;;;;;;21.08;16.52;;;;;;;;;;5081199;28;20035;-72
2022/11/15 08:56:39;;;;;;;15.20;13.60;;;;;;;;;;5080362;28;20107;-73
2022/11/15 08:59:04;;;;;;;15.70;13.43;;;;;;;;;;5082688;28;20044;-72
2022/11/15 09:01:30;;;;;;;18.58;15.65;;;;;;;;;;5079093;28;20413;-71
2022/11/15 09:03:55;;;;;;;23.08;19.90;;;;;;;;;;5080970;28;20024;-71
2022/11/15 09:06:20;;;;;;;24.35;20.98;;;;;;;;;;5081496;28;20116;-72
2022/11/15 09:08:46;;;;;;;47.58;42.55;;;;;;;;;;5079414;28;20050;-71
2022/11/15 09:11:12;;;;;;;19.50;17.48;;;;;;;;;;5079438;28;21122;-72
2022/11/15 09:13:37;;;;;;;58.17;48.25;;;;;;;;;;5080507;28;21244;-72
2022/11/15 09:16:03;;;;;;;64.20;52.50;;;;;;;;;;5081383;28;20451;-72
2022/11/15 09:18:29;;;;;;;43.70;38.25;;;;;;;;;;5079333;28;20491;-71
2022/11/15 09:20:58;;;;;;;70.68;58.38;;;;;;;;;;5081242;28;20118;-75
2022/11/15 09:23:23;;;;;;;101.30;69.90;;;;;;;;;;5082009;28;20742;-75
2022/11/15 09:25:48;;;;;;;267.42;138.32;;;;;;;;;;5080533;28;20063;-73
2022/11/15 09:28:14;;;;;;;380.58;195.18;;;;;;;;;;5079877;28;20106;-71
2022/11/15 09:30:39;;;;;;;398.10;223.50;;;;;;;;;;5080605;28;20024;-71
2022/11/15 09:33:08;;;;;;;90.10;57.78;;;;;;;;;;5080823;28;20024;-71
2022/11/15 09:35:33;;;;;;;107.67;70.70;;;;;;;;;;5082228;28;20678;-72
2022/11/15 09:37:58;;;;;;;127.50;82.30;;;;;;;;;;5079845;28;20513;-73
2022/11/15 09:40:24;;;;;;;100.80;73.03;;;;;;;;;;5081350;28;20062;-72
2022/11/15 09:42:59;;;;;;;75.60;60.25;;;;;;;;;;5079667;28;20443;-72
2022/11/15 09:45:58;;;;;;;171.10;136.85;;;;;;;;;;5079675;28;20036;-71
2022/11/15 09:48:35;;;;;;;148.45;120.72;;;;;;;;;;5079637;28;20020;-72
2022/11/15 09:51:02;;;;;;;50.50;44.13;;;;;;;;;;5079832;28;20032;-76
2022/11/15 09:53:49;;;;;;;42.53;37.88;;;;;;;;;;5078809;28;20065;-72
2022/11/15 09:56:18;;;;;;;39.53;34.90;;;;;;;;;;5080367;28;20032;-71
2022/11/15 09:58:56;;;;;;;34.00;28.35;;;;;;;;;;5080896;28;20111;-73
2022/11/15 10:01:42;;;;;;;33.60;28.95;;;;;;;;;;5081017;28;20028;-74
2022/11/15 10:04:07;;;;;;;35.05;31.25;;;;;;;;;;5056286;28;20070;-72
2022/11/15 10:06:34;;;;;;;25.77;22.40;;;;;;;;;;5078604;28;20431;-72
2022/11/15 10:09:06;;;;;;;23.92;21.15;;;;;;;;;;5078967;28;20016;-77
2022/11/15 10:11:34;;;;;;;18.45;16.65;;;;;;;;;;5078172;28;20102;-75
2022/11/15 10:14:01;;;;;;;27.33;24.55;;;;;;;;;;5079515;28;20036;-72
2022/11/15 10:16:29;;;;;;;21.90;19.70;;;;;;;;;;5079683;28;20016;-74
2022/11/15 10:19:07;;;;;;;16.85;15.27;;;;;;;;;;5080155;28;20044;-71
2022/11/15 10:21:38;;;;;;;15.07;13.68;;;;;;;;;;5080900;28;20028;-72
2022/11/15 10:24:10;;;;;;;16.48;14.80;;;;;;;;;;5084632;28;20031;-72
2022/11/15 10:26:35;;;;;;;23.58;21.17;;;;;;;;;;5082889;28;20027;-72
2022/11/15 10:29:01;;;;;;;30.55;27.27;;;;;;;;;;5085213;28;20020;-72
2022/11/15 10:31:27;;;;;;;38.42;34.38;;;;;;;;;;5083375;28;20077;-75
2022/11/15 10:34:22;;;;;;;26.17;23.42;;;;;;;;;;5082280;28;20119;-73
2022/11/15 10:37:01;;;;;;;15.45;13.85;;;;;;;;;;5004731;28;20354;-75
2022/11/15 10:39:27;;;;;;;16.80;14.55;;;;;;;;;;5002345;28;20049;-71
2022/11/15 10:41:52;;;;;;;11.77;10.68;;;;;;;;;;5004393;28;20050;-73
2022/11/15 10:44:31;;;;;;;17.52;15.82;;;;;;;;;;5001976;28;20041;-72
2022/11/15 10:46:56;;;;;;;25.00;22.45;;;;;;;;;;5002603;28;20033;-73
2022/11/15 10:49:28;;;;;;;17.48;15.63;;;;;;;;;;5004330;28;20792;-75
2022/11/15 10:52:11;;;;;;;25.60;23.00;;;;;;;;;;5004903;28;20044;-71
2022/11/15 10:54:48;;;;;;;17.98;16.17;;;;;;;;;;5002688;28;20046;-73
2022/11/15 10:57:15;;;;;;;26.83;22.98;;;;;;;;;;5003868;28;20062;-71
2022/11/15 10:59:48;;;;;;;31.30;27.52;;;;;;;;;;5002500;28;20052;-73
2022/11/15 11:02:32;;;;;;;17.60;14.35;;;;;;;;;;5002912;28;20120;-72
2022/11/15 11:04:58;;;;;;;16.25;14.30;;;;;;;;;;5002770;28;20033;-74
2022/11/15 11:07:25;;;;;;;10.70;9.60;;;;;;;;;;5002420;28;20053;-71
2022/11/15 11:09:57;;;;;;;9.07;8.20;;;;;;;;;;5004623;28;20041;-71
2022/11/15 11:12:27;;;;;;;12.45;11.15;;;;;;;;;;5015729;28;20130;-73
2022/11/15 11:14:52;;;;;;;10.38;9.30;;;;;;;;;;5082192;28;20439;-71
2022/11/15 11:17:20;;;;;;;9.48;8.57;;;;;;;;;;5080357;28;20028;-73
2022/11/15 11:19:46;;;;;;;9.18;8.20;;;;;;;;;;5080537;28;20046;-72
2022/11/15 11:22:20;;;;;;;26.20;19.27;;;;;;;;;;5082691;28;20432;-71
2022/11/15 11:24:46;;;;;;;12.02;10.75;;;;;;;;;;5082384;28;20551;-72
2022/11/15 11:27:22;;;;;;;51.20;43.15;;;;;;;;;;5083044;28;20038;-71
2022/11/15 11:30:02;;;;;;;81.35;64.93;;;;;;;;;;5081153;28;20028;-75
2022/11/15 11:32:27;;;;;;;;;;;;;;;;;;5083414;28;20052;-72
2022/11/15 11:35:06;;;;;;;113.23;81.60;;;;;;;;;;5080837;28;19939;-75
2022/11/15 11:37:38;;;;;;;86.53;57.13;;;;;;;;;;5083759;28;20020;-74
2022/11/15 11:40:22;;;;;;;23.63;18.52;;;;;;;;;;5064781;28;20352;-72
2022/11/15 11:43:06;;;;;;;41.78;32.70;;;;;;;;;;5081469;28;20151;-72
2022/11/15 11:45:34;;;;;;;29.30;24.70;;;;;;;;;;5082587;28;20032;-71
2022/11/15 11:48:13;;;;;;;13.27;11.98;;;;;;;;;;5082127;28;20031;-74
2022/11/15 11:50:39;;;;;;;29.13;26.02;;;;;;;;;;5080939;28;20416;-71
2022/11/15 11:53:17;;;;;;;18.13;16.23;;;;;;;;;;5080538;28;20931;-71
2022/11/15 11:55:45;;;;;;;21.02;18.25;;;;;;;;;;5082303;28;20466;-71
2022/11/15 11:58:14;;;;;;;33.35;30.05;;;;;;;;;;5082463;28;20036;-71
2022/11/15 12:01:00;;;;;;;23.77;21.42;;;;;;;;;;5082961;28;20051;-72
2022/11/15 12:03:30;;;;;;;20.60;18.52;;;;;;;;;;5075750;28;20067;-70
2022/11/15 12:06:04;;;;;;;19.27;17.38;;;;;;;;;;5081763;28;20123;-71
2022/11/15 12:08:40;;;;;;;23.80;21.40;;;;;;;;;;5082014;28;20063;-72
2022/11/15 12:11:24;;;;;;;22.45;20.20;;;;;;;;;;5081071;28;20020;-72
2022/11/15 12:13:53;;;;;;;21.52;19.42;;;;;;;;;;5080637;28;20348;-73
2022/11/15 12:16:23;;;;;;;34.50;30.90;;;;;;;;;;5081249;28;20035;-75
2022/11/15 12:18:50;;;;;;;26.88;22.65;;;;;;;;;;5080092;28;20048;-71
2022/11/15 12:21:35;;;;;;;34.65;30.98;;;;;;;;;;5080867;28;20024;-72
2022/11/15 12:24:04;;;;;;;30.00;27.02;;;;;;;;;;5061782;28;20079;-71
2022/11/15 12:26:32;;;;;;;23.40;21.00;;;;;;;;;;5083455;28;20027;-72
2022/11/15 12:28:59;;;;;;;25.27;22.70;;;;;;;;;;5080361;28;20082;-71
2022/11/15 12:31:33;;;;;;;19.50;17.50;;;;;;;;;;5081582;28;20450;-73
2022/11/15 12:34:01;;;;;;;16.50;14.35;;;;;;;;;;5081294;28;20051;-74
2022/11/15 12:36:29;;;;;;;18.88;15.65;;;;;;;;;;5081606;28;20020;-75
2022/11/15 12:39:02;;;;;;;19.65;17.55;;;;;;;;;;5082575;28;20031;-72
2022/11/15 12:41:32;;;;;;;16.00;14.30;;;;;;;;;;5081252;28;20111;-75
2022/11/15 12:43:59;;;;;;;18.52;16.73;;;;;;;;;;5080791;28;20028;-76
2022/11/15 12:46:30;;;;;;;16.48;14.90;;;;;;;;;;5080148;28;20024;-73
2022/11/15 12:49:22;;;;;;;18.83;17.02;;;;;;;;;;5079125;28;20044;-74
2022/11/15 12:51:47;;;;;;;21.92;19.70;;;;;;;;;;5031888;28;20350;-73
2022/11/15 12:54:21;;;;;;;25.13;22.55;;;;;;;;;;5081686;28;20039;-72
2022/11/15 12:57:07;;;;;;;60.63;54.22;;;;;;;;;;5080364;28;20038;-73
2022/11/15 12:59:47;;;;;;;53.03;47.78;;;;;;;;;;5068989;28;20111;-73
2022/11/15 13:02:21;;;;;;;37.55;33.75;;;;;;;;;;5080523;28;20024;-71
2022/11/15 13:04:46;;;;;;;27.63;24.67;;;;;;;;;;5079659;28;20028;-74
2022/11/15 13:07:30;;;;;;;225.75;184.57;;;;;;;;;;5080476;28;20041;-72
2022/11/15 13:09:56;;;;;;;119.20;103.03;;;;;;;;;;5080102;28;20031;-73
2022/11/15 13:12:21;;;;;;;87.20;75.28;;;;;;;;;;5080399;28;20055;-71
2022/11/15 13:14:48;;;;;;;66.90;59.72;;;;;;;;;;5081293;28;20953;-74
2022/11/15 13:17:20;;;;;;;45.75;40.90;;;;;;;;;;5080226;28;20031;-72
2022/11/15 13:19:46;;;;;;;32.80;29.52;;;;;;;;;;5080119;28;20527;-71
2022/11/15 13:24:56;;;;;;;43.10;38.47;;;;;;;;;;5081559;28;20513;-72
2022/11/15 13:27:21;;;;;;;38.15;34.08;;;;;;;;;;5080846;28;20024;-72
2022/11/15 13:29:46;;;;;;;46.33;39.63;;;;;;;;;;5079783;28;20020;-72
2022/11/15 13:32:13;;;;;;;51.00;44.70;;;;;;;;;;5078861;28;20031;-72
2022/11/15 13:34:39;;;;;;;35.95;31.58;;;;;;;;;;5079924;28;20028;-72
2022/11/15 13:37:09;;;;;;;28.15;25.25;;;;;;;;;;5081026;28;20019;-71
2022/11/15 13:39:37;;;;;;;21.90;19.70;;;;;;;;;;5081292;28;20031;-73
2022/11/15 13:42:02;;;;;;;77.75;68.05;;;;;;;;;;5079029;28;20024;-73
2022/11/15 13:44:29;;;;;;;179.13;136.75;;;;;;;;;;5079452;28;20107;-71
2022/11/15 13:47:27;;;;;;;156.00;124.13;;;;;;;;;;5080143;28;20043;-74
2022/11/15 13:49:52;;;;;;;96.25;83.43;;;;;;;;;;5018421;28;20044;-73
2022/11/15 13:52:18;;;;;;;67.32;60.25;;;;;;;;;;5015944;28;20034;-72
2022/11/15 13:54:50;;;;;;;66.00;59.10;;;;;;;;;;5019940;28;20052;-72
2022/11/15 13:57:20;;;;;;;62.90;56.05;;;;;;;;;;5022290;28;20045;-72
2022/11/15 13:59:57;;;;;;;66.13;59.08;;;;;;;;;;5022871;28;20033;-73
2022/11/15 14:02:35;;;;;;;47.42;42.47;;;;;;;;;;5021213;28;20396;-71
2022/11/15 14:05:13;;;;;;;48.80;43.65;;;;;;;;;;5021829;28;20049;-71
2022/11/15 14:07:38;;;;;;;43.53;39.22;;;;;;;;;;5019591;28;20029;-74
2022/11/15 14:10:27;;;;;;;51.58;46.08;;;;;;;;;;5005580;28;20036;-71
2022/11/15 14:12:52;;;;;;;48.78;43.53;;;;;;;;;;5008943;28;20042;-73
2022/11/15 14:15:31;;;;;;;44.20;39.40;;;;;;;;;;5021154;28;20487;-71
2022/11/15 14:17:57;;;;;;;66.47;58.70;;;;;;;;;;5020879;28;20478;-72
2022/11/15 14:20:25;;;;;;;51.28;45.78;;;;;;;;;;5020761;28;20033;-73
2022/11/15 14:22:51;;;;;;;58.58;52.35;;;;;;;;;;5020018;28;20041;-75
2022/11/15 14:25:21;;;;;;;49.25;43.80;;;;;;;;;;5047882;28;20040;-73
2022/11/15 14:28:05;;;;;;;71.88;64.43;;;;;;;;;;5083198;28;20036;-75
2022/11/15 14:30:30;;;;;;;59.35;53.35;;;;;;;;;;5084824;28;20032;-72
2022/11/15 14:32:55;;;;;;;39.03;34.88;;;;;;;;;;5083375;28;20359;-72
2022/11/15 14:35:22;;;;;;;36.92;33.05;;;;;;;;;;5082725;28;20036;-72
2022/11/15 14:37:48;;;;;;;48.50;43.30;;;;;;;;;;5084656;28;20479;-72
2022/11/15 14:40:17;;;;;;;61.50;55.00;;;;;;;;;;5082164;28;20108;-73
2022/11/15 14:42:44;;;;;;;68.40;61.03;;;;;;;;;;5082091;28;20538;-72